createdAt,value
2018-11-28T00:00:32.112Z,75.56
2018-11-28T00:03:03.365Z,75.58
2018-11-28T00:05:32.703Z,75.18
2018-11-28T00:08:02.101Z,75.44
2018-11-28T00:10:31.268Z,75.09
2018-11-28T00:13:00.557Z,75.20
2018-11-28T00:15:29.960Z,75.11
2018-11-28T00:17:59.417Z,75.15
2018-11-28T00:20:28.843Z,75.13
2018-11-28T00:22:58.064Z,75.00
2018-11-28T00:25:27.446Z,75.18
2018-11-28T00:27:56.860Z,74.84
2018-11-28T00:30:26.861Z,75.17
2018-11-28T00:32:56.291Z,75.10
2018-11-28T00:35:25.808Z,74.95
2018-11-28T00:37:55.340Z,75.07
2018-11-28T00:40:24.946Z,74.84
2018-11-28T00:42:54.256Z,75.11
2018-11-28T00:45:24.730Z,74.77
2018-11-28T00:47:54.080Z,74.68
2018-11-28T00:50:26.551Z,74.72
2018-11-28T00:52:55.990Z,74.96
2018-11-28T00:55:25.341Z,74.88
2018-11-28T00:57:54.746Z,75.13
2018-11-28T01:00:25.963Z,74.86
2018-11-28T01:02:55.248Z,74.85
2018-11-28T01:05:24.592Z,75.17
2018-11-28T01:07:54.775Z,75.23
2018-11-28T01:10:25.120Z,74.84
2018-11-28T01:12:54.982Z,75.15
2018-11-28T01:15:24.368Z,74.95
2018-11-28T01:17:53.813Z,74.87
2018-11-28T01:20:24.106Z,74.94
2018-11-28T01:22:53.416Z,75.31
2018-11-28T01:25:23.160Z,75.02
2018-11-28T01:27:52.806Z,74.98
2018-11-28T01:30:22.768Z,75.33
2018-11-28T01:32:52.016Z,74.97
2018-11-28T01:35:22.154Z,75.28
2018-11-28T01:37:51.506Z,75.16
2018-11-28T01:40:23.194Z,74.98
2018-11-28T01:42:53.120Z,75.09
2018-11-28T01:45:24.210Z,75.13
2018-11-28T01:47:53.433Z,75.18
2018-11-28T01:50:22.935Z,74.92
2018-11-28T01:52:52.327Z,75.39
2018-11-28T01:55:23.210Z,74.79
2018-11-28T01:57:52.505Z,75.05
2018-11-28T02:00:22.652Z,75.13
2018-11-28T02:02:57.018Z,75.51
2018-11-28T02:05:26.825Z,75.49
2018-11-28T02:07:56.420Z,75.26
2018-11-28T02:10:25.808Z,75.62
2018-11-28T02:12:54.076Z,75.74
2018-11-28T02:15:27.654Z,75.60
2018-11-28T02:17:57.696Z,75.95
2018-11-28T02:20:27.293Z,75.69
2018-11-28T02:22:56.903Z,75.58
2018-11-28T02:25:26.390Z,75.50
2018-11-28T02:27:55.598Z,75.42
2018-11-28T02:30:24.928Z,75.50
2018-11-28T02:32:54.208Z,75.60
2018-11-28T02:35:23.483Z,75.33
2018-11-28T02:37:52.630Z,75.58
2018-11-28T02:40:22.921Z,75.41
2018-11-28T02:42:52.503Z,75.23
2018-11-28T02:45:22.632Z,75.42
2018-11-28T02:47:52.678Z,75.55
2018-11-28T02:50:22.417Z,75.27
2018-11-28T02:52:51.760Z,75.29
2018-11-28T02:55:20.987Z,75.11
2018-11-28T02:57:50.807Z,74.62
2018-11-28T03:00:22.910Z,74.72
2018-11-28T03:02:52.143Z,74.98
2018-11-28T03:05:21.371Z,75.02
2018-11-28T03:07:50.675Z,74.71
2018-11-28T03:10:22.106Z,74.65
2018-11-28T03:12:51.395Z,74.88
2018-11-28T03:15:33.651Z,74.46
2018-11-28T03:18:03.340Z,74.44
2018-11-28T03:20:32.583Z,74.43
2018-11-28T03:23:01.860Z,74.66
2018-11-28T03:25:31.189Z,74.75
2018-11-28T03:28:00.620Z,74.85
2018-11-28T03:30:30.130Z,74.82
2018-11-28T03:32:59.530Z,74.86
2018-11-28T03:35:29.207Z,74.88
2018-11-28T03:37:58.663Z,74.43
2018-11-28T03:40:28.128Z,74.81
2018-11-28T03:42:57.737Z,74.75
2018-11-28T03:45:26.945Z,74.57
2018-11-28T03:47:56.296Z,74.95
2018-11-28T03:50:25.573Z,74.84
2018-11-28T03:52:55.028Z,75.16
2018-11-28T03:55:24.303Z,74.85
2018-11-28T03:57:53.476Z,75.11
2018-11-28T04:00:23.121Z,74.85
2018-11-28T04:02:52.487Z,74.89
2018-11-28T04:05:22.040Z,74.12
2018-11-28T04:07:51.392Z,74.23
2018-11-28T04:10:21.764Z,74.24
2018-11-28T04:12:51.268Z,74.21
2018-11-28T04:15:22.078Z,73.96
2018-11-28T04:17:51.358Z,73.74
2018-11-28T04:20:21.535Z,73.75
2018-11-28T04:22:50.942Z,73.45
2018-11-28T04:25:21.098Z,73.39
2018-11-28T04:27:50.680Z,73.15
2018-11-28T04:30:21.963Z,73.25
2018-11-28T04:32:51.547Z,72.84
2018-11-28T04:35:21.789Z,73.10
2018-11-28T04:37:51.295Z,73.06
2018-11-28T04:40:22.244Z,73.39
2018-11-28T04:42:51.707Z,73.34
2018-11-28T04:45:22.680Z,73.38
2018-11-28T04:47:52.421Z,73.42
2018-11-28T04:50:21.416Z,73.07
2018-11-28T04:52:50.583Z,73.06
2018-11-28T04:55:20.383Z,72.84
2018-11-28T04:57:49.733Z,72.78
2018-11-28T05:00:22.031Z,72.94
2018-11-28T05:02:51.314Z,72.78
2018-11-28T05:05:20.818Z,72.59
2018-11-28T05:07:50.807Z,72.97
2018-11-28T05:10:24.678Z,72.72
2018-11-28T05:12:54.340Z,72.68
2018-11-28T05:15:25.756Z,73.09
2018-11-28T05:17:55.578Z,73.11
2018-11-28T05:20:26.611Z,72.50
2018-11-28T05:22:55.895Z,72.69
2018-11-28T05:25:26.419Z,72.53
2018-11-28T05:27:57.400Z,72.58
2018-11-28T05:30:27.726Z,72.67
2018-11-28T05:32:57.119Z,72.11
2018-11-28T05:35:27.642Z,72.21
2018-11-28T05:37:57.516Z,72.54
2018-11-28T05:40:27.935Z,72.32
2018-11-28T05:42:57.564Z,72.60
2018-11-28T05:45:27.002Z,72.20
2018-11-28T05:47:56.326Z,72.50
2018-11-28T05:50:25.674Z,72.28
2018-11-28T05:52:55.090Z,72.00
2018-11-28T05:55:24.527Z,72.09
2018-11-28T05:57:53.769Z,71.79
2018-11-28T06:00:37.222Z,71.81
2018-11-28T06:03:07.944Z,71.25
2018-11-28T06:05:37.226Z,71.18
2018-11-28T06:08:07.094Z,70.99
2018-11-28T06:10:36.551Z,71.05
2018-11-28T06:13:06.322Z,70.83
2018-11-28T06:15:35.510Z,70.68
2018-11-28T06:18:04.960Z,69.77
2018-11-28T06:20:34.286Z,70.00
2018-11-28T06:23:03.671Z,70.18
2018-11-28T06:25:33.046Z,70.41
2018-11-28T06:28:02.233Z,69.76
2018-11-28T06:30:31.448Z,69.87
2018-11-28T06:33:00.749Z,70.22
2018-11-28T06:35:30.119Z,70.43
2018-11-28T06:37:59.514Z,70.48
2018-11-28T06:40:29.070Z,70.25
2018-11-28T06:42:58.515Z,70.04
2018-11-28T06:45:27.933Z,69.80
2018-11-28T06:47:57.248Z,69.91
2018-11-28T06:50:26.574Z,68.94
2018-11-28T06:52:56.294Z,69.15
2018-11-28T06:55:25.655Z,69.36
2018-11-28T06:57:54.978Z,69.70
2018-11-28T07:00:24.586Z,69.30
2018-11-28T07:02:54.681Z,69.22
2018-11-28T07:05:24.454Z,69.33
2018-11-28T07:07:53.986Z,69.66
2018-11-28T07:10:23.865Z,69.36
2018-11-28T07:12:53.135Z,69.41
2018-11-28T07:15:23.586Z,69.56
2018-11-28T07:17:53.069Z,68.74
2018-11-28T07:20:22.291Z,69.06
2018-11-28T07:22:51.820Z,69.00
2018-11-28T07:25:21.085Z,69.43
2018-11-28T07:27:50.486Z,69.32
2018-11-28T07:30:21.522Z,69.63
2018-11-28T07:32:52.068Z,69.60
2018-11-28T07:35:21.349Z,69.72
2018-11-28T07:37:50.505Z,69.80
2018-11-28T07:40:22.544Z,69.39
2018-11-28T07:42:57.013Z,69.02
2018-11-28T07:45:26.239Z,69.88
2018-11-28T07:47:55.692Z,69.70
2018-11-28T07:50:24.962Z,69.67
2018-11-28T07:52:54.109Z,69.21
2018-11-28T07:55:23.183Z,69.27
2018-11-28T07:57:52.787Z,69.27
2018-11-28T08:00:22.325Z,70.08
2018-11-28T08:02:51.724Z,69.58
2018-11-28T08:05:21.023Z,69.95
2018-11-28T08:07:50.434Z,69.72
2018-11-28T08:10:22.821Z,70.12
2018-11-28T08:12:55.106Z,70.19
2018-11-28T08:15:24.638Z,70.23
2018-11-28T08:17:54.184Z,70.41
2018-11-28T08:20:23.099Z,70.39
2018-11-28T08:22:52.429Z,70.35
2018-11-28T08:25:27.519Z,70.55
2018-11-28T08:27:51.749Z,70.50
2018-11-28T08:30:22.899Z,70.67
2018-11-28T08:32:52.216Z,71.37
2018-11-28T08:35:21.650Z,70.80
2018-11-28T08:37:50.940Z,71.29
2018-11-28T08:40:22.351Z,71.20
2018-11-28T08:42:51.717Z,70.97
2018-11-28T08:45:21.724Z,71.27
2018-11-28T08:47:52.034Z,71.01
2018-11-28T08:50:26.353Z,70.97
2018-11-28T08:52:55.633Z,71.07
2018-11-28T08:55:24.991Z,70.97
2018-11-28T08:57:54.314Z,70.62
2018-11-28T09:00:25.396Z,71.07
2018-11-28T09:02:55.707Z,71.27
2018-11-28T09:05:25.058Z,71.10
2018-11-28T09:07:54.473Z,71.35
2018-11-28T09:10:24.650Z,71.41
2018-11-28T09:12:54.161Z,71.85
2018-11-28T09:15:25.319Z,71.62
2018-11-28T09:17:54.825Z,71.93
2018-11-28T09:20:24.053Z,71.56
2018-11-28T09:22:53.421Z,71.73
2018-11-28T09:25:22.876Z,71.51
2018-11-28T09:27:56.420Z,71.69
2018-11-28T09:30:26.213Z,71.62
2018-11-28T09:32:55.752Z,71.74
2018-11-28T09:35:25.294Z,71.66
2018-11-28T09:37:54.610Z,71.54
2018-11-28T09:40:24.845Z,71.50
2018-11-28T09:42:55.116Z,71.40
2018-11-28T09:45:24.508Z,71.89
2018-11-28T09:47:53.797Z,71.41
2018-11-28T09:50:26.013Z,71.48
2018-11-28T09:52:55.477Z,71.59
2018-11-28T09:55:26.873Z,71.48
2018-11-28T09:57:56.289Z,71.46
2018-11-28T10:00:27.008Z,71.44
2018-11-28T10:02:59.247Z,71.59
2018-11-28T10:05:31.373Z,71.61
2018-11-28T10:08:00.696Z,71.71
2018-11-28T10:10:30.455Z,71.57
2018-11-28T10:12:59.936Z,71.36
2018-11-28T10:15:35.238Z,71.56
2018-11-28T10:17:59.588Z,71.52
2018-11-28T10:20:29.351Z,71.28
2018-11-28T10:22:59.031Z,71.36
2018-11-28T10:25:28.429Z,71.25
2018-11-28T10:28:04.238Z,71.40
2018-11-28T10:30:36.530Z,71.63
2018-11-28T10:33:09.495Z,71.72
2018-11-28T10:35:39.552Z,71.63
2018-11-28T10:38:08.964Z,71.50
2018-11-28T10:40:38.571Z,71.45
2018-11-28T10:43:08.894Z,71.35
2018-11-28T10:45:38.456Z,71.30
2018-11-28T10:48:08.985Z,71.06
2018-11-28T10:50:38.525Z,71.39
2018-11-28T10:53:08.014Z,71.17
2018-11-28T10:55:37.254Z,71.00
2018-11-28T10:58:07.950Z,70.71
2018-11-28T11:00:42.998Z,70.96
2018-11-28T11:03:17.405Z,70.72
2018-11-28T11:05:51.761Z,70.83
2018-11-28T11:08:27.261Z,70.70
2018-11-28T11:11:01.807Z,70.62
2018-11-28T11:13:36.341Z,70.50
2018-11-28T11:16:06.005Z,70.64
2018-11-28T11:18:35.137Z,70.53
2018-11-28T11:21:04.458Z,70.62
2018-11-28T11:23:33.882Z,70.42
2018-11-28T11:26:03.135Z,70.22
2018-11-28T11:28:32.414Z,70.33
2018-11-28T11:31:02.553Z,70.29
2018-11-28T11:33:31.783Z,70.48
2018-11-28T11:36:01.012Z,70.00
2018-11-28T11:38:30.296Z,70.23
2018-11-28T11:40:59.707Z,70.41
2018-11-28T11:43:29.151Z,70.07
2018-11-28T11:45:58.501Z,70.39
2018-11-28T11:48:27.911Z,70.06
2018-11-28T11:50:57.430Z,70.02
2018-11-28T11:53:26.928Z,70.13
2018-11-28T11:55:56.454Z,70.07
2018-11-28T11:58:26.047Z,69.74
2018-11-28T12:00:56.012Z,69.77
2018-11-28T12:03:25.212Z,69.72
2018-11-28T12:05:55.631Z,69.56
2018-11-28T12:08:25.679Z,69.53
2018-11-28T12:10:54.887Z,69.61
2018-11-28T12:13:24.242Z,69.68
2018-11-28T12:15:53.454Z,69.55
2018-11-28T12:18:22.765Z,69.31
2018-11-28T12:20:53.662Z,69.27
2018-11-28T12:23:24.059Z,69.32
2018-11-28T12:25:53.347Z,69.65
2018-11-28T12:28:23.100Z,69.45
2018-11-28T12:30:52.595Z,69.40
2018-11-28T12:33:22.312Z,69.35
2018-11-28T12:35:51.708Z,69.27
2018-11-28T12:38:22.002Z,69.38
2018-11-28T12:40:51.512Z,69.26
2018-11-28T12:43:21.515Z,69.33
2018-11-28T12:45:51.871Z,69.62
2018-11-28T12:48:21.202Z,69.41
2018-11-28T12:50:50.587Z,69.66
2018-11-28T12:53:20.566Z,69.65
2018-11-28T12:55:49.554Z,69.45
2018-11-28T12:58:20.875Z,69.48
2018-11-28T13:00:50.493Z,69.54
2018-11-28T13:03:20.386Z,69.93
2018-11-28T13:05:49.920Z,69.71
2018-11-28T13:08:19.890Z,69.64
2018-11-28T13:10:49.287Z,69.65
2018-11-28T13:13:18.392Z,69.83
2018-11-28T13:15:47.848Z,69.78
2018-11-28T13:18:17.358Z,69.61
2018-11-28T13:20:46.941Z,69.78
2018-11-28T13:23:16.978Z,70.06
2018-11-28T13:25:46.106Z,69.83
2018-11-28T13:28:15.545Z,70.09
2018-11-28T13:30:45.045Z,69.99
2018-11-28T13:33:14.331Z,70.09
2018-11-28T13:35:43.616Z,70.34
2018-11-28T13:38:13.917Z,70.32
2018-11-28T13:40:43.645Z,70.24
2018-11-28T13:43:13.050Z,70.39
2018-11-28T13:45:47.133Z,70.81
2018-11-28T13:48:17.161Z,70.59
2018-11-28T13:50:46.616Z,70.78
2018-11-28T13:53:19.334Z,70.71
2018-11-28T13:56:30.135Z,70.67
2018-11-28T13:58:20.342Z,70.70
2018-11-28T14:00:49.634Z,70.79
2018-11-28T14:03:18.834Z,71.18
2018-11-28T14:05:48.477Z,71.05
2018-11-28T14:08:17.695Z,71.14
2018-11-28T14:10:47.099Z,71.16
2018-11-28T14:13:16.494Z,71.51
2018-11-28T14:15:45.839Z,71.64
2018-11-28T14:18:17.348Z,71.51
2018-11-28T14:20:46.650Z,71.61
2018-11-28T14:23:15.970Z,71.48
2018-11-28T14:25:45.677Z,71.69
2018-11-28T14:28:15.032Z,71.70
2018-11-28T14:30:50.782Z,71.80
2018-11-28T14:33:20.273Z,72.10
2018-11-28T14:35:49.656Z,72.11
2018-11-28T14:38:19.248Z,72.26
2018-11-28T14:40:48.405Z,72.38
2018-11-28T14:43:17.432Z,72.40
2018-11-28T14:45:46.915Z,72.70
2018-11-28T14:48:16.136Z,72.56
2018-11-28T14:50:47.642Z,72.80
2018-11-28T14:53:17.178Z,72.71
2018-11-28T14:55:46.934Z,72.92
2018-11-28T14:58:16.130Z,72.58
2018-11-28T15:00:46.857Z,72.84
2018-11-28T15:03:19.496Z,72.70
2018-11-28T15:06:30.334Z,72.80
2018-11-28T15:09:04.795Z,72.57
2018-11-28T15:11:34.575Z,72.81
2018-11-28T15:14:04.724Z,72.86
2018-11-28T15:16:34.367Z,72.63
2018-11-28T15:19:03.540Z,72.80
2018-11-28T15:21:43.444Z,72.48
2018-11-28T15:24:21.450Z,72.78
2018-11-28T15:26:54.657Z,72.89
2018-11-28T15:29:26.356Z,72.95
2018-11-28T15:32:04.595Z,73.04
2018-11-28T15:34:35.370Z,72.89
2018-11-28T15:37:08.917Z,72.99
2018-11-28T15:39:38.345Z,73.23
2018-11-28T15:42:17.465Z,73.06
2018-11-28T15:44:47.008Z,73.16
2018-11-28T15:47:17.226Z,73.35
2018-11-28T15:49:49.333Z,73.26
2018-11-28T15:52:19.921Z,73.36
2018-11-28T15:54:51.329Z,73.24
2018-11-28T15:57:21.265Z,73.35
2018-11-28T15:59:50.588Z,73.32
2018-11-28T16:02:22.358Z,73.63
2018-11-28T16:04:52.346Z,73.59
2018-11-28T16:07:21.373Z,73.32
2018-11-28T16:09:56.503Z,73.36
2018-11-28T16:12:26.047Z,73.76
2018-11-28T16:14:55.399Z,73.39
2018-11-28T16:17:24.759Z,73.27
2018-11-28T16:19:53.789Z,73.57
2018-11-28T16:22:22.739Z,73.99
2018-11-28T16:24:51.886Z,73.72
2018-11-28T16:27:21.140Z,73.86
2018-11-28T16:29:55.713Z,73.63
2018-11-28T16:32:27.121Z,73.92
2018-11-28T16:35:41.368Z,74.12
2018-11-28T16:38:16.907Z,74.11
2018-11-28T16:40:46.478Z,74.05
2018-11-28T16:43:16.494Z,74.20
2018-11-28T16:45:56.562Z,74.44
2018-11-28T16:48:31.636Z,74.29
2018-11-28T16:51:05.653Z,74.18
2018-11-28T16:53:34.773Z,74.16
2018-11-28T16:56:04.193Z,74.16
2018-11-28T16:58:48.188Z,74.15
2018-11-28T17:01:18.322Z,74.19
2018-11-28T17:03:50.514Z,74.16
2018-11-28T17:06:28.463Z,74.12
2018-11-28T17:08:57.944Z,74.12
2018-11-28T17:11:34.615Z,74.58
2018-11-28T17:14:04.789Z,74.73
2018-11-28T17:16:34.573Z,74.19
2018-11-28T17:19:05.224Z,74.45
2018-11-28T17:21:47.042Z,74.24
2018-11-28T17:24:16.445Z,74.58
2018-11-28T17:26:45.649Z,74.62
2018-11-28T17:29:14.594Z,74.57
2018-11-28T17:31:44.140Z,74.03
2018-11-28T17:34:13.133Z,74.38
2018-11-28T17:36:42.118Z,74.44
2018-11-28T17:39:25.198Z,74.32
2018-11-28T17:41:55.117Z,74.55
2018-11-28T17:44:26.477Z,74.41
2018-11-28T17:46:57.769Z,74.30
2018-11-28T17:49:28.301Z,74.15
2018-11-28T17:51:57.665Z,74.05
2018-11-28T17:54:29.274Z,74.00
2018-11-28T17:57:00.904Z,73.93
2018-11-28T17:59:31.580Z,74.18
2018-11-28T18:02:02.254Z,74.23
2018-11-28T18:04:31.604Z,73.95
2018-11-28T18:07:01.634Z,74.37
2018-11-28T18:09:30.841Z,74.30
2018-11-28T18:12:00.329Z,74.19
2018-11-28T18:14:30.240Z,73.91
2018-11-28T18:16:59.749Z,74.14
2018-11-28T18:19:30.698Z,74.13
2018-11-28T18:22:02.189Z,74.04
2018-11-28T18:24:33.437Z,74.44
2018-11-28T18:27:04.130Z,74.14
2018-11-28T18:29:33.395Z,74.08
2018-11-28T18:32:07.642Z,73.94
2018-11-28T18:34:38.421Z,74.15
2018-11-28T18:37:08.987Z,73.81
2018-11-28T18:39:38.683Z,73.85
2018-11-28T18:42:08.050Z,73.86
2018-11-28T18:44:37.433Z,74.09
2018-11-28T18:47:08.476Z,73.51
2018-11-28T18:49:40.017Z,73.58
2018-11-28T18:52:14.351Z,73.72
2018-11-28T18:54:50.032Z,73.64
2018-11-28T18:57:19.707Z,73.73
2018-11-28T18:59:48.826Z,73.70
2018-11-28T19:02:19.401Z,73.64
2018-11-28T19:04:50.581Z,73.25
2018-11-28T19:07:20.286Z,72.89
2018-11-28T19:09:51.576Z,73.06
2018-11-28T19:26:12.663Z,72.72
2018-11-28T19:28:44.907Z,72.53
2018-11-28T19:31:14.503Z,72.11
2018-11-28T19:33:44.063Z,72.37
2018-11-28T19:36:13.605Z,72.16
2018-11-28T19:38:43.449Z,72.17
2018-11-28T19:41:20.589Z,71.86
2018-11-28T19:43:50.217Z,71.48
2018-11-28T19:46:19.682Z,71.74
2018-11-28T19:48:49.109Z,71.50
2018-11-28T19:51:18.691Z,70.60
2018-11-28T19:53:47.850Z,70.28
2018-11-28T19:56:17.518Z,70.40
2018-11-28T19:58:47.300Z,70.55
2018-11-28T20:01:16.652Z,69.71
2018-11-28T20:03:46.152Z,69.92
2018-11-28T20:06:15.887Z,68.79
2018-11-28T20:08:46.513Z,69.15
2018-11-28T20:11:16.732Z,69.31
2018-11-28T20:13:46.585Z,69.24
2018-11-28T20:18:45.802Z,68.60
2018-11-28T20:21:15.387Z,68.79
2018-11-28T20:23:44.836Z,68.83
2018-11-28T20:26:14.575Z,68.65
2018-11-28T20:28:44.522Z,68.62
2018-11-28T20:31:14.126Z,68.23
2018-11-28T20:33:43.448Z,67.39
2018-11-28T20:36:13.214Z,67.93
2018-11-28T20:38:43.234Z,67.73
2018-11-28T20:41:13.240Z,67.75
2018-11-28T20:43:42.458Z,67.96
2018-11-28T20:46:12.642Z,67.56
2018-11-28T20:48:42.154Z,67.69
2018-11-28T20:51:12.465Z,67.44
2018-11-28T20:53:42.240Z,67.42
2018-11-28T20:56:12.997Z,67.38
2018-11-28T20:58:42.571Z,67.52
2018-11-28T21:01:12.303Z,67.40
2018-11-28T21:03:42.760Z,67.20
2018-11-28T21:06:12.751Z,67.12
2018-11-28T21:08:43.046Z,67.20
2018-11-28T21:11:12.363Z,66.87
2018-11-28T21:13:41.849Z,66.89
2018-11-28T21:16:11.456Z,66.58
2018-11-28T21:18:40.627Z,66.48
2018-11-28T21:21:10.172Z,66.54
2018-11-28T21:23:39.708Z,66.80
2018-11-28T21:26:09.343Z,66.39
2018-11-28T21:28:38.826Z,66.80
2018-11-28T21:31:08.558Z,66.87
2018-11-28T21:33:38.098Z,66.53
2018-11-28T21:36:09.100Z,66.82
2018-11-28T21:38:39.165Z,66.45
2018-11-28T21:41:08.854Z,66.31
2018-11-28T21:43:38.251Z,66.49
2018-11-28T21:46:07.999Z,66.62
2018-11-28T21:48:37.570Z,66.49
2018-11-28T21:51:07.240Z,66.34
2018-11-28T21:53:36.835Z,66.67
2018-11-28T21:56:06.546Z,66.69
2018-11-28T21:58:35.913Z,66.47
2018-11-28T22:01:05.394Z,66.52
2018-11-28T22:03:35.014Z,66.83
2018-11-28T22:06:04.468Z,66.62
2018-11-28T22:08:34.037Z,66.60
2018-11-28T22:11:03.629Z,66.15
2018-11-28T22:13:33.241Z,66.08
2018-11-28T22:16:36.127Z,66.00
2018-11-28T22:19:05.806Z,66.29
2018-11-28T22:21:36.067Z,65.94
2018-11-28T22:24:07.197Z,66.38
2018-11-28T22:26:36.732Z,65.74
2018-11-28T22:29:06.423Z,65.96
2018-11-28T22:31:36.123Z,65.77
2018-11-28T22:34:05.755Z,65.74
2018-11-28T22:36:35.123Z,66.02
2018-11-28T22:39:05.796Z,65.94
2018-11-28T22:41:35.202Z,65.84
2018-11-28T22:44:04.949Z,65.93
2018-11-28T22:46:34.432Z,65.80
2018-11-28T22:49:03.785Z,65.58
2018-11-28T22:51:32.991Z,65.24
2018-11-28T22:54:02.524Z,65.48
2018-11-28T22:56:31.712Z,65.52
2018-11-28T22:59:01.017Z,65.51
2018-11-28T23:01:43.188Z,65.63
2018-11-28T23:04:12.683Z,65.23
2018-11-28T23:06:42.482Z,65.48
2018-11-28T23:09:13.539Z,65.58
2018-11-28T23:11:43.634Z,65.64
2018-11-28T23:14:13.273Z,65.41
2018-11-28T23:16:42.983Z,65.64
2018-11-28T23:19:12.810Z,65.15
2018-11-28T23:21:42.266Z,65.32
2018-11-28T23:24:11.883Z,65.38
2018-11-28T23:26:41.622Z,65.77
2018-11-28T23:29:11.127Z,65.74
2018-11-28T23:31:40.939Z,65.83
2018-11-28T23:34:10.353Z,65.70
2018-11-28T23:36:39.736Z,65.39
2018-11-28T23:39:09.294Z,65.62
2018-11-28T23:41:38.646Z,66.05
2018-11-28T23:44:08.015Z,65.83
2018-11-28T23:46:37.599Z,65.79
2018-11-28T23:49:07.270Z,65.55
2018-11-28T23:51:37.108Z,65.94
2018-11-28T23:54:07.487Z,66.28
2018-11-28T23:56:37.064Z,66.20
2018-11-28T23:59:07.818Z,65.76
